createdAt,value
2023-03-16T00:02:04.004Z,100198.94
2023-03-16T00:04:37.741Z,100197.25
2023-03-16T00:07:07.125Z,100208.78
2023-03-16T00:09:33.949Z,100213.81
2023-03-16T00:12:03.770Z,100216.22
2023-03-16T00:14:34.051Z,100206.16
2023-03-16T00:17:01.743Z,100213.88
2023-03-16T00:19:28.540Z,100214.47
2023-03-16T00:21:55.274Z,100205.47
2023-03-16T00:24:25.162Z,100206.91
2023-03-16T00:26:55.062Z,100210.25
2023-03-16T00:29:22.846Z,100209.78
2023-03-16T00:31:49.627Z,100213.16
2023-03-16T00:34:16.765Z,100214.09
2023-03-16T00:36:43.649Z,100211.69
2023-03-16T00:39:11.945Z,100218.53
2023-03-16T00:41:38.638Z,100218.78
2023-03-16T00:44:06.082Z,100213.84
2023-03-16T00:46:33.168Z,100211.47
2023-03-16T00:51:26.525Z,100212.19
2023-03-16T00:53:53.227Z,100210.63
2023-03-16T00:56:20.026Z,100200.88
2023-03-16T00:58:46.711Z,100208.09
2023-03-16T01:01:16.578Z,100206.19
2023-03-16T01:03:47.262Z,100214.84
2023-03-16T01:06:17.369Z,100221.19
2023-03-16T01:08:45.052Z,100223.25
2023-03-16T01:11:16.558Z,100225.84
2023-03-16T01:13:43.661Z,100221.78
2023-03-16T01:16:11.224Z,100221.88
2023-03-16T01:18:37.882Z,100223.44
2023-03-16T01:21:13.995Z,100219.16
2023-03-16T01:23:41.197Z,100210.25
2023-03-16T01:26:08.547Z,100201.13
2023-03-16T01:28:35.353Z,100207.97
2023-03-16T01:31:08.337Z,100211.72
2023-03-16T01:33:36.581Z,100208.94
2023-03-16T01:36:07.831Z,100211.81
2023-03-16T01:38:34.880Z,100213.16
2023-03-16T01:41:02.251Z,100205.13
2023-03-16T01:43:31.880Z,100206.41
2023-03-16T01:46:00.829Z,100213.97
2023-03-16T01:48:28.145Z,100210.63
2023-03-16T01:50:56.766Z,100214.31
2023-03-16T01:53:27.066Z,100207.00
2023-03-16T01:55:55.495Z,100210.94
2023-03-16T01:58:23.194Z,100215.16
2023-03-16T02:00:50.109Z,100206.38
2023-03-16T02:03:19.899Z,100203.88
2023-03-16T02:05:54.022Z,100200.38
2023-03-16T02:08:23.235Z,100200.38
2023-03-16T02:10:50.234Z,100188.38
2023-03-16T02:13:16.963Z,100187.78
2023-03-16T02:15:43.724Z,100184.66
2023-03-16T02:18:11.189Z,100178.56
2023-03-16T02:20:54.847Z,100175.44
2023-03-16T02:23:24.667Z,100178.34
2023-03-16T02:26:01.763Z,100163.72
2023-03-16T02:28:38.374Z,100159.22
2023-03-16T02:31:06.174Z,100151.19
2023-03-16T02:33:34.135Z,100155.28
2023-03-16T02:36:01.835Z,100152.63
2023-03-16T02:38:28.584Z,100144.84
2023-03-16T02:41:02.152Z,100147.47
2023-03-16T02:43:35.064Z,100138.59
2023-03-16T02:46:05.544Z,100147.97
2023-03-16T02:48:45.511Z,100153.72
2023-03-16T02:51:12.764Z,100154.56
2023-03-16T02:53:39.657Z,100166.31
2023-03-16T02:56:07.056Z,100165.84
2023-03-16T02:58:34.003Z,100168.94
2023-03-16T03:01:02.928Z,100162.63
2023-03-16T03:03:37.279Z,100171.38
2023-03-16T03:06:05.078Z,100170.16
2023-03-16T03:08:33.057Z,100171.34
2023-03-16T03:13:27.006Z,100174.47
2023-03-16T03:15:53.965Z,100161.16
2023-03-16T03:18:21.055Z,100154.56
2023-03-16T03:20:48.387Z,100156.94
2023-03-16T03:23:17.225Z,100154.06
2023-03-16T03:25:44.102Z,100153.84
2023-03-16T03:28:11.616Z,100154.06
2023-03-16T03:30:38.287Z,100153.22
2023-03-16T03:33:05.110Z,100152.28
2023-03-16T03:35:32.066Z,100159.13
2023-03-16T03:37:58.888Z,100152.75
2023-03-16T03:40:26.444Z,100153.84
2023-03-16T03:42:53.315Z,100143.88
2023-03-16T03:45:20.845Z,100154.91
2023-03-16T03:47:47.765Z,100165.56
2023-03-16T03:50:14.819Z,100158.50
2023-03-16T03:52:42.147Z,100150.66
2023-03-16T03:55:10.000Z,100150.31
2023-03-16T03:57:37.426Z,100159.81
2023-03-16T04:00:13.643Z,100139.88
2023-03-16T04:02:40.943Z,100139.88
2023-03-16T04:05:08.794Z,100135.91
2023-03-16T04:07:35.549Z,100141.56
2023-03-16T04:10:02.679Z,100144.56
2023-03-16T04:12:29.405Z,100146.03
2023-03-16T04:14:56.045Z,100147.91
2023-03-16T04:17:23.966Z,100135.91
2023-03-16T04:19:50.691Z,100140.72
2023-03-16T04:22:17.437Z,100139.97
2023-03-16T04:24:44.725Z,100137.59
2023-03-16T04:27:12.239Z,100131.47
2023-03-16T04:29:39.268Z,100126.22
2023-03-16T04:32:07.505Z,100132.44
2023-03-16T04:34:34.721Z,100126.94
2023-03-16T04:37:02.528Z,100138.69
2023-03-16T04:39:29.294Z,100136.06
2023-03-16T04:41:56.064Z,100141.84
2023-03-16T04:44:23.091Z,100133.91
2023-03-16T04:46:49.747Z,100145.66
2023-03-16T04:49:16.900Z,100147.34
2023-03-16T04:51:43.542Z,100141.63
2023-03-16T04:54:11.533Z,100131.53
2023-03-16T04:56:41.616Z,100133.19
2023-03-16T04:59:09.907Z,100131.03
2023-03-16T05:01:39.712Z,100132.56
2023-03-16T05:04:06.767Z,100133.41
2023-03-16T05:06:33.472Z,100128.84
2023-03-16T05:09:01.813Z,100123.81
2023-03-16T05:11:28.831Z,100121.16
2023-03-16T05:13:55.610Z,100130.53
2023-03-16T05:16:22.385Z,100132.22
2023-03-16T05:18:49.297Z,100134.56
2023-03-16T05:21:16.860Z,100120.09
2023-03-16T05:23:43.547Z,100122.38
2023-03-16T05:26:10.276Z,100118.63
2023-03-16T05:28:37.001Z,100124.25
2023-03-16T05:31:04.061Z,100123.63
2023-03-16T05:33:30.980Z,100121.38
2023-03-16T05:35:58.260Z,100122.22
2023-03-16T05:38:25.343Z,100131.72
2023-03-16T05:40:53.295Z,100133.28
2023-03-16T05:43:21.045Z,100138.63
2023-03-16T05:45:47.914Z,100138.66
2023-03-16T05:48:18.360Z,100137.94
2023-03-16T05:50:45.014Z,100147.00
2023-03-16T05:53:11.688Z,100146.53
2023-03-16T05:55:38.340Z,100140.81
2023-03-16T05:58:05.975Z,100138.63
2023-03-16T06:00:32.991Z,100141.72
2023-03-16T06:05:28.782Z,100149.38
2023-03-16T06:07:55.825Z,100144.63
2023-03-16T06:10:22.573Z,100146.41
2023-03-16T06:12:49.345Z,100142.50
2023-03-16T06:15:16.257Z,100141.75
2023-03-16T06:17:43.115Z,100137.22
2023-03-16T06:20:13.254Z,100148.38
2023-03-16T06:22:41.628Z,100150.84
2023-03-16T06:25:10.133Z,100154.88
2023-03-16T06:27:37.512Z,100156.91
2023-03-16T06:30:06.525Z,100141.81
2023-03-16T06:32:33.315Z,100157.53
2023-03-16T06:35:02.048Z,100164.63
2023-03-16T06:37:29.870Z,100157.94
2023-03-16T06:39:57.150Z,100164.88
2023-03-16T06:42:24.336Z,100166.06
2023-03-16T06:44:52.499Z,100169.44
2023-03-16T06:47:20.116Z,100168.47
2023-03-16T06:49:47.327Z,100169.44
2023-03-16T06:52:14.979Z,100172.53
2023-03-16T06:54:41.857Z,100160.31
2023-03-16T06:57:09.093Z,100170.63
2023-03-16T06:59:36.099Z,100168.84
2023-03-16T07:02:03.152Z,100171.38
2023-03-16T07:04:32.982Z,100169.94
2023-03-16T07:09:28.365Z,100170.53
2023-03-16T07:11:55.132Z,100166.66
2023-03-16T07:14:23.529Z,100169.38
2023-03-16T07:16:50.950Z,100182.88
2023-03-16T07:19:20.551Z,100179.97
2023-03-16T07:21:52.013Z,100179.16
2023-03-16T07:24:18.930Z,100173.88
2023-03-16T07:26:46.609Z,100168.44
2023-03-16T07:29:14.573Z,100168.25
2023-03-16T07:31:41.293Z,100163.53
2023-03-16T07:34:08.096Z,100160.06
2023-03-16T07:36:35.989Z,100160.66
2023-03-16T07:39:03.278Z,100163.91
2023-03-16T07:41:33.167Z,100157.44
2023-03-16T07:46:27.140Z,100158.09
2023-03-16T07:48:53.886Z,100156.44
2023-03-16T07:51:21.518Z,100162.19
2023-03-16T07:53:48.199Z,100159.16
2023-03-16T07:56:15.123Z,100158.31
2023-03-16T07:58:42.072Z,100162.38
2023-03-16T08:01:11.121Z,100156.31
2023-03-16T08:03:42.292Z,100155.63
2023-03-16T08:06:09.069Z,100159.38
2023-03-16T08:08:35.864Z,100160.06
2023-03-16T08:11:02.631Z,100162.81
2023-03-16T08:13:30.487Z,100163.41
2023-03-16T08:18:26.795Z,100160.06
2023-03-16T08:20:55.026Z,100149.69
2023-03-16T08:23:22.583Z,100155.50
2023-03-16T08:25:52.624Z,100156.44
2023-03-16T08:28:21.839Z,100157.06
2023-03-16T08:30:51.179Z,100160.97
2023-03-16T08:33:22.558Z,100159.72
2023-03-16T08:35:49.859Z,100160.69
2023-03-16T08:38:16.600Z,100159.31
2023-03-16T08:40:48.662Z,100151.66
2023-03-16T08:43:17.543Z,100157.50
2023-03-16T08:45:47.762Z,100159.91
2023-03-16T08:48:15.462Z,100151.66
2023-03-16T08:50:47.186Z,100153.19
2023-03-16T08:53:14.810Z,100146.72
2023-03-16T08:55:42.045Z,100151.91
2023-03-16T08:58:11.990Z,100148.09
2023-03-16T09:00:39.291Z,100150.16
2023-03-16T09:03:07.106Z,100132.69
2023-03-16T09:05:34.989Z,100138.56
2023-03-16T09:08:01.966Z,100145.88
2023-03-16T09:10:29.277Z,100135.84
2023-03-16T09:12:56.847Z,100133.19
2023-03-16T09:15:23.969Z,100134.78
2023-03-16T09:17:50.663Z,100137.91
2023-03-16T09:20:34.975Z,100129.00
2023-03-16T09:23:01.877Z,100126.81
2023-03-16T09:25:28.839Z,100120.53
2023-03-16T09:27:55.821Z,100113.63
2023-03-16T09:30:22.649Z,100115.03
2023-03-16T09:32:50.603Z,100111.91
2023-03-16T09:35:17.681Z,100108.56
2023-03-16T09:38:01.143Z,100111.38
2023-03-16T09:40:29.497Z,100113.88
2023-03-16T09:43:02.074Z,100099.25
2023-03-16T09:45:57.805Z,100094.75
2023-03-16T09:48:31.078Z,100090.63
2023-03-16T09:50:59.490Z,100085.63
2023-03-16T09:53:35.523Z,100084.56
2023-03-16T09:56:09.502Z,100075.13
2023-03-16T09:58:37.035Z,100077.28
2023-03-16T10:01:07.820Z,100080.47
2023-03-16T10:03:52.194Z,100064.84
2023-03-16T10:06:20.248Z,100073.53
2023-03-16T10:09:02.035Z,100061.91
2023-03-16T10:11:57.003Z,100066.69
2023-03-16T10:14:54.338Z,100060.81
2023-03-16T10:17:29.205Z,100060.88
2023-03-16T10:20:01.994Z,100057.41
2023-03-16T10:22:39.395Z,100053.84
2023-03-16T10:25:17.095Z,100054.59
2023-03-16T10:27:46.408Z,100040.72
2023-03-16T10:30:19.960Z,100034.16
2023-03-16T10:32:47.601Z,100027.84
2023-03-16T10:35:28.514Z,100033.22
2023-03-16T10:37:56.839Z,100036.28
2023-03-16T10:40:23.724Z,100032.47
2023-03-16T10:42:50.596Z,100015.84
2023-03-16T10:45:26.748Z,100022.50
2023-03-16T10:47:54.355Z,100026.00
2023-03-16T10:50:27.489Z,100025.06
2023-03-16T10:52:57.115Z,100020.09
2023-03-16T10:55:32.942Z,100016.09
2023-03-16T10:58:08.014Z,100020.66
2023-03-16T11:00:43.621Z,100015.28
2023-03-16T11:03:37.111Z,100014.59
2023-03-16T11:06:07.018Z,100014.22
2023-03-16T11:08:41.580Z,100013.53
2023-03-16T11:11:16.985Z,100008.44
2023-03-16T11:13:46.488Z,100018.50
2023-03-16T11:16:31.865Z,100008.44
2023-03-16T11:19:04.903Z,100002.75
2023-03-16T11:22:02.142Z,100004.94
2023-03-16T11:24:52.823Z,100008.38
2023-03-16T11:28:02.454Z,100002.25
2023-03-16T11:31:02.265Z,99991.59
2023-03-16T11:33:31.420Z,99983.53
2023-03-16T11:36:02.123Z,99987.03
2023-03-16T11:38:49.467Z,99988.84
2023-03-16T11:41:43.147Z,99984.00
2023-03-16T11:44:22.448Z,99977.03
2023-03-16T11:47:02.145Z,99967.44
2023-03-16T11:49:52.098Z,99959.16
2023-03-16T11:52:46.441Z,99958.81
2023-03-16T11:55:24.749Z,99950.31
2023-03-16T11:57:51.886Z,99955.22
2023-03-16T12:00:24.825Z,99946.50
2023-03-16T12:03:02.211Z,99943.25
2023-03-16T12:05:35.080Z,99936.03
2023-03-16T12:08:26.826Z,99941.50
2023-03-16T12:11:01.134Z,99942.31
2023-03-16T12:13:32.742Z,99948.41
2023-03-16T12:16:01.205Z,99951.66
2023-03-16T12:18:39.256Z,99941.25
2023-03-16T12:21:20.439Z,99944.97
2023-03-16T12:24:02.201Z,99926.53
2023-03-16T12:26:34.934Z,99934.03
2023-03-16T12:29:17.696Z,99922.13
2023-03-16T12:31:54.302Z,99914.91
2023-03-16T12:34:48.149Z,99916.19
2023-03-16T12:37:19.706Z,99911.41
2023-03-16T12:39:56.153Z,99906.72
2023-03-16T12:42:43.820Z,99899.88
2023-03-16T12:45:37.617Z,99889.19
2023-03-16T12:48:22.118Z,99888.88
2023-03-16T12:50:51.411Z,99890.16
2023-03-16T12:53:56.230Z,99895.38
2023-03-16T12:56:36.187Z,99887.97
2023-03-16T12:59:06.688Z,99896.88
2023-03-16T13:01:44.051Z,99902.75
2023-03-16T13:04:23.790Z,99901.66
2023-03-16T13:07:03.316Z,99901.88
2023-03-16T13:09:34.250Z,99892.06
2023-03-16T13:12:02.116Z,99880.72
2023-03-16T13:14:34.958Z,99885.69
2023-03-16T13:17:17.516Z,99880.03
2023-03-16T13:19:47.896Z,99870.47
2023-03-16T13:22:26.244Z,99871.34
2023-03-16T13:25:02.200Z,99867.59
2023-03-16T13:27:33.641Z,99865.59
2023-03-16T13:30:02.356Z,99854.78
2023-03-16T13:32:33.837Z,99853.22
2023-03-16T13:35:04.827Z,99849.38
2023-03-16T13:37:32.459Z,99862.44
2023-03-16T13:40:02.146Z,99856.63
2023-03-16T13:42:33.775Z,99851.22
2023-03-16T13:45:02.205Z,99848.59
2023-03-16T13:47:29.124Z,99839.34
2023-03-16T13:49:59.050Z,99846.59
2023-03-16T13:52:30.938Z,99846.41
2023-03-16T13:54:59.859Z,99836.22
2023-03-16T13:57:29.899Z,99833.91
2023-03-16T14:00:01.205Z,99835.75
2023-03-16T14:02:28.067Z,99843.53
2023-03-16T14:04:55.124Z,99835.16
2023-03-16T14:07:24.773Z,99829.50
2023-03-16T14:09:52.611Z,99818.72
2023-03-16T14:12:20.193Z,99801.72
2023-03-16T14:14:51.211Z,99796.25
2023-03-16T14:17:21.517Z,99798.38
2023-03-16T14:19:51.170Z,99801.22
2023-03-16T14:22:31.128Z,99799.56
2023-03-16T14:27:39.519Z,99785.59
2023-03-16T14:30:27.097Z,99789.25
2023-03-16T14:32:58.680Z,99786.13
2023-03-16T14:35:28.953Z,99781.03
2023-03-16T14:37:57.250Z,99771.53
2023-03-16T14:40:30.996Z,99775.66
2023-03-16T14:45:33.931Z,99771.69
2023-03-16T14:48:02.316Z,99774.38
2023-03-16T14:50:29.232Z,99763.75
2023-03-16T14:52:57.049Z,99765.31
2023-03-16T14:55:25.009Z,99781.06
2023-03-16T14:57:51.852Z,99776.81
2023-03-16T15:00:22.364Z,99771.94
2023-03-16T15:02:58.198Z,99757.78
2023-03-16T15:05:36.608Z,99752.97
2023-03-16T15:08:05.745Z,99760.13
2023-03-16T15:10:35.441Z,99763.13
2023-03-16T15:13:12.988Z,99758.53
2023-03-16T15:15:44.265Z,99771.00
2023-03-16T15:18:11.100Z,99754.41
2023-03-16T15:20:43.928Z,99762.13
2023-03-16T15:23:15.893Z,99754.22
2023-03-16T15:25:47.335Z,99749.91
2023-03-16T15:28:14.085Z,99754.50
2023-03-16T15:30:41.150Z,99751.56
2023-03-16T15:33:10.530Z,99753.91
2023-03-16T15:35:37.704Z,99754.16
2023-03-16T15:38:18.384Z,99749.69
2023-03-16T15:40:47.919Z,99746.66
2023-03-16T15:43:18.785Z,99743.84
2023-03-16T15:45:47.424Z,99747.41
2023-03-16T15:48:15.118Z,99737.81
2023-03-16T15:50:47.033Z,99739.13
2023-03-16T15:53:30.908Z,99731.28
2023-03-16T15:56:01.455Z,99730.63
2023-03-16T15:58:32.808Z,99730.84
2023-03-16T16:01:02.725Z,99729.59
2023-03-16T16:03:29.970Z,99733.69
2023-03-16T16:05:57.033Z,99730.41
2023-03-16T16:08:23.766Z,99729.53
2023-03-16T16:10:50.813Z,99726.03
2023-03-16T16:13:31.181Z,99724.56
2023-03-16T16:16:04.967Z,99734.69
2023-03-16T16:18:35.528Z,99729.56
2023-03-16T16:21:05.468Z,99735.81
2023-03-16T16:23:33.560Z,99741.41
2023-03-16T16:26:02.272Z,99739.72
2023-03-16T16:28:33.345Z,99734.69
2023-03-16T16:31:02.553Z,99731.22
2023-03-16T16:33:36.036Z,99734.47
2023-03-16T16:36:06.259Z,99731.09
2023-03-16T16:38:34.308Z,99729.66
2023-03-16T16:41:01.294Z,99725.66
2023-03-16T16:43:41.353Z,99727.72
2023-03-16T16:46:26.244Z,99727.50
2023-03-16T16:49:04.161Z,99728.28
2023-03-16T16:51:34.662Z,99710.63
2023-03-16T16:54:02.440Z,99711.84
2023-03-16T16:56:42.073Z,99706.84
2023-03-16T16:59:19.121Z,99713.78
2023-03-16T17:01:54.267Z,99715.84
2023-03-16T17:04:24.857Z,99722.81
2023-03-16T17:06:55.767Z,99719.72
2023-03-16T17:09:23.665Z,99722.31
2023-03-16T17:11:51.483Z,99722.22
2023-03-16T17:14:20.626Z,99724.25
2023-03-16T17:16:48.583Z,99717.41
2023-03-16T17:19:28.186Z,99721.50
2023-03-16T17:21:57.798Z,99722.69
2023-03-16T17:24:25.174Z,99728.19
2023-03-16T17:29:34.374Z,99727.72
2023-03-16T17:32:01.335Z,99722.47
2023-03-16T17:34:29.979Z,99719.66
2023-03-16T17:36:56.680Z,99727.25
2023-03-16T17:39:31.904Z,99728.41
2023-03-16T17:42:02.323Z,99726.88
2023-03-16T17:44:34.826Z,99731.31
2023-03-16T17:47:03.423Z,99732.66
2023-03-16T17:49:32.213Z,99726.28
2023-03-16T17:51:59.338Z,99732.09
2023-03-16T17:54:26.271Z,99728.41
2023-03-16T17:56:56.107Z,99726.94
2023-03-16T17:59:23.557Z,99728.50
2023-03-16T18:01:50.494Z,99727.53
2023-03-16T18:04:27.685Z,99726.69
2023-03-16T18:06:55.656Z,99719.59
2023-03-16T18:09:22.367Z,99729.31
2023-03-16T18:11:51.056Z,99729.69
2023-03-16T18:14:35.206Z,99726.72
2023-03-16T18:17:07.918Z,99727.91
2023-03-16T18:19:34.925Z,99715.91
2023-03-16T18:22:01.749Z,99714.63
2023-03-16T18:24:28.489Z,99725.97
2023-03-16T18:26:55.765Z,99714.06
2023-03-16T18:29:22.760Z,99719.69
2023-03-16T18:31:52.270Z,99722.91
2023-03-16T18:34:24.043Z,99715.81
2023-03-16T18:36:53.663Z,99714.50
2023-03-16T18:39:21.799Z,99710.31
2023-03-16T18:41:48.827Z,99715.00
2023-03-16T18:44:24.455Z,99718.97
2023-03-16T18:46:54.535Z,99714.53
2023-03-16T18:49:34.230Z,99708.47
2023-03-16T18:52:02.387Z,99699.81
2023-03-16T18:54:31.520Z,99702.84
2023-03-16T18:56:59.043Z,99708.78
2023-03-16T18:59:26.825Z,99706.50
2023-03-16T19:01:54.095Z,99703.13
2023-03-16T19:04:24.650Z,99698.59
2023-03-16T19:06:54.156Z,99700.78
2023-03-16T19:09:29.433Z,99703.31
2023-03-16T19:11:56.582Z,99700.66
2023-03-16T19:14:26.848Z,99704.38
2023-03-16T19:16:54.783Z,99708.53
2023-03-16T19:19:23.595Z,99697.38
2023-03-16T19:22:02.305Z,99703.72
2023-03-16T19:24:34.608Z,99703.28
2023-03-16T19:27:02.315Z,99702.53
2023-03-16T19:29:34.585Z,99708.34
2023-03-16T19:32:01.413Z,99707.19
2023-03-16T19:34:28.928Z,99706.81
2023-03-16T19:36:56.178Z,99706.69
2023-03-16T19:39:26.467Z,99697.50
2023-03-16T19:41:57.814Z,99698.03
2023-03-16T19:44:27.455Z,99690.25
2023-03-16T19:46:59.443Z,99696.13
2023-03-16T19:49:27.410Z,99695.28
2023-03-16T19:51:59.129Z,99688.97
2023-03-16T19:54:35.333Z,99682.16
2023-03-16T19:57:10.534Z,99684.66
2023-03-16T19:59:38.314Z,99689.63
2023-03-16T20:02:23.140Z,99690.84
2023-03-16T20:04:50.011Z,99684.69
2023-03-16T20:07:17.474Z,99686.81
2023-03-16T20:09:47.884Z,99681.72
2023-03-16T20:12:22.772Z,99688.34
2023-03-16T20:14:51.442Z,99681.34
2023-03-16T20:17:24.349Z,99682.06
2023-03-16T20:19:52.237Z,99681.41
2023-03-16T20:22:21.673Z,99683.91
2023-03-16T20:24:51.097Z,99688.09
2023-03-16T20:27:23.348Z,99691.94
2023-03-16T20:29:50.825Z,99693.09
2023-03-16T20:32:24.014Z,99686.94
2023-03-16T20:34:51.795Z,99683.25
2023-03-16T20:37:30.045Z,99676.75
2023-03-16T20:39:59.346Z,99689.44
2023-03-16T20:42:29.969Z,99684.63
2023-03-16T20:44:56.690Z,99673.47
2023-03-16T20:47:25.995Z,99673.81
2023-03-16T20:49:58.676Z,99670.13
2023-03-16T20:52:30.635Z,99674.03
2023-03-16T20:54:58.522Z,99670.53
2023-03-16T20:57:27.368Z,99665.22
2023-03-16T20:59:55.805Z,99673.88
2023-03-16T21:02:37.139Z,99668.88
2023-03-16T21:05:07.138Z,99670.91
2023-03-16T21:07:34.171Z,99665.56
2023-03-16T21:12:32.123Z,99681.63
2023-03-16T21:15:02.496Z,99679.97
2023-03-16T21:17:37.276Z,99681.63
2023-03-16T21:20:16.084Z,99676.13
2023-03-16T21:22:43.382Z,99668.16
2023-03-16T21:25:18.922Z,99666.47
2023-03-16T21:27:49.897Z,99662.66
2023-03-16T21:30:32.958Z,99662.19
2023-03-16T21:35:37.349Z,99658.53
2023-03-16T21:38:14.828Z,99662.03
2023-03-16T21:40:41.625Z,99663.34
2023-03-16T21:43:10.745Z,99665.03
2023-03-16T21:45:39.495Z,99658.53
2023-03-16T21:48:06.566Z,99648.69
2023-03-16T21:50:35.397Z,99642.38
2023-03-16T21:53:02.498Z,99642.38
2023-03-16T21:55:31.573Z,99649.03
2023-03-16T22:00:30.701Z,99657.03
2023-03-16T22:05:37.779Z,99648.38
2023-03-16T22:08:14.795Z,99652.03
2023-03-16T22:10:42.156Z,99652.03
2023-03-16T22:13:09.669Z,99649.69
2023-03-16T22:15:36.965Z,99642.88
2023-03-16T22:18:08.807Z,99637.25
2023-03-16T22:20:36.717Z,99637.41
2023-03-16T22:23:04.349Z,99644.72
2023-03-16T22:25:31.391Z,99634.38
2023-03-16T22:27:58.312Z,99637.56
2023-03-16T22:30:28.696Z,99646.75
2023-03-16T22:35:31.751Z,99646.06
2023-03-16T22:40:32.571Z,99634.06
2023-03-16T22:43:03.193Z,99629.59
2023-03-16T22:45:32.779Z,99632.41
2023-03-16T22:48:02.617Z,99627.09
2023-03-16T22:50:34.452Z,99618.75
2023-03-16T22:53:02.932Z,99622.09
2023-03-16T22:55:39.346Z,99619.13
2023-03-16T22:58:09.058Z,99623.44
2023-03-16T23:00:36.353Z,99620.59
2023-03-16T23:03:03.416Z,99612.63
2023-03-16T23:05:31.291Z,99611.63
2023-03-16T23:10:30.574Z,99603.13
2023-03-16T23:13:03.862Z,99603.47
2023-03-16T23:15:31.240Z,99600.97
2023-03-16T23:17:58.337Z,99609.78
2023-03-16T23:20:29.123Z,99606.63
2023-03-16T23:22:56.016Z,99604.13
2023-03-16T23:25:24.116Z,99598.50
2023-03-16T23:27:52.789Z,99597.66
2023-03-16T23:30:23.839Z,99590.66
2023-03-16T23:32:52.433Z,99586.84
2023-03-16T23:35:24.821Z,99587.50
2023-03-16T23:37:52.614Z,99584.50
2023-03-16T23:40:21.728Z,99582.19
2023-03-16T23:42:48.946Z,99579.53
2023-03-16T23:45:32.410Z,99580.19
2023-03-16T23:48:02.504Z,99579.66
2023-03-16T23:50:32.327Z,99570.53
2023-03-16T23:52:59.352Z,99568.50
2023-03-16T23:55:26.788Z,99569.34
2023-03-16T23:57:53.740Z,99563.56
